sensor_id;sensor_type;location;lat;lon;timestamp;temperature;humidity
5588;DHT22;2816;49.778;9.986;2023-02-15T00:02:00;1.80;99.90
5588;DHT22;2816;49.778;9.986;2023-02-15T00:04:27;1.80;99.90
5588;DHT22;2816;49.778;9.986;2023-02-15T00:07:14;1.80;99.90
5588;DHT22;2816;49.778;9.986;2023-02-15T00:09:41;1.70;99.90
5588;DHT22;2816;49.778;9.986;2023-02-15T00:12:09;1.80;99.90
5588;DHT22;2816;49.778;9.986;2023-02-15T00:14:36;1.80;99.90
5588;DHT22;2816;49.778;9.986;2023-02-15T00:17:03;1.70;99.90
5588;DHT22;2816;49.778;9.986;2023-02-15T00:19:30;1.70;99.90
5588;DHT22;2816;49.778;9.986;2023-02-15T00:21:57;1.70;99.90
5588;DHT22;2816;49.778;9.986;2023-02-15T00:24:26;1.70;99.90
5588;DHT22;2816;49.778;9.986;2023-02-15T00:26:53;1.70;99.90
5588;DHT22;2816;49.778;9.986;2023-02-15T00:29:21;1.70;99.90
5588;DHT22;2816;49.778;9.986;2023-02-15T00:31:48;1.70;99.90
5588;DHT22;2816;49.778;9.986;2023-02-15T00:34:16;1.70;99.90
5588;DHT22;2816;49.778;9.986;2023-02-15T00:36:44;1.70;99.90
5588;DHT22;2816;49.778;9.986;2023-02-15T00:39:12;1.70;99.90
5588;DHT22;2816;49.778;9.986;2023-02-15T00:41:40;1.70;99.90
5588;DHT22;2816;49.778;9.986;2023-02-15T00:44:08;1.70;99.90
5588;DHT22;2816;49.778;9.986;2023-02-15T00:46:35;1.70;99.90
5588;DHT22;2816;49.778;9.986;2023-02-15T00:49:03;1.60;99.90
5588;DHT22;2816;49.778;9.986;2023-02-15T00:51:30;1.60;99.90
5588;DHT22;2816;49.778;9.986;2023-02-15T00:53:57;1.50;99.90
5588;DHT22;2816;49.778;9.986;2023-02-15T00:56:24;1.50;99.90
5588;DHT22;2816;49.778;9.986;2023-02-15T00:58:52;1.60;99.90
5588;DHT22;2816;49.778;9.986;2023-02-15T01:01:20;1.60;99.90
5588;DHT22;2816;49.778;9.986;2023-02-15T01:03:47;1.50;99.90
5588;DHT22;2816;49.778;9.986;2023-02-15T01:06:15;1.60;99.90
5588;DHT22;2816;49.778;9.986;2023-02-15T01:08:43;1.60;99.90
5588;DHT22;2816;49.778;9.986;2023-02-15T01:11:12;1.60;99.90
5588;DHT22;2816;49.778;9.986;2023-02-15T01:13:40;1.50;99.90
5588;DHT22;2816;49.778;9.986;2023-02-15T01:16:09;1.40;99.90
5588;DHT22;2816;49.778;9.986;2023-02-15T01:18:36;1.40;99.90
5588;DHT22;2816;49.778;9.986;2023-02-15T01:21:10;1.40;99.90
5588;DHT22;2816;49.778;9.986;2023-02-15T01:23:37;1.30;99.90
5588;DHT22;2816;49.778;9.986;2023-02-15T01:26:04;1.50;99.90
5588;DHT22;2816;49.778;9.986;2023-02-15T01:28:31;1.50;99.90
5588;DHT22;2816;49.778;9.986;2023-02-15T01:30:58;1.50;99.90
5588;DHT22;2816;49.778;9.986;2023-02-15T01:33:27;1.40;99.90
5588;DHT22;2816;49.778;9.986;2023-02-15T01:35:56;1.30;99.90
5588;DHT22;2816;49.778;9.986;2023-02-15T01:38:24;1.40;99.90
5588;DHT22;2816;49.778;9.986;2023-02-15T01:40:51;1.30;99.90
5588;DHT22;2816;49.778;9.986;2023-02-15T01:43:18;1.30;99.90
5588;DHT22;2816;49.778;9.986;2023-02-15T01:45:47;1.30;99.90
5588;DHT22;2816;49.778;9.986;2023-02-15T01:48:19;1.30;99.90
5588;DHT22;2816;49.778;9.986;2023-02-15T01:50:52;1.20;99.90
5588;DHT22;2816;49.778;9.986;2023-02-15T01:53:23;1.20;99.90
5588;DHT22;2816;49.778;9.986;2023-02-15T01:55:55;1.20;99.90
5588;DHT22;2816;49.778;9.986;2023-02-15T01:58:26;1.20;99.90
5588;DHT22;2816;49.778;9.986;2023-02-15T02:00:56;1.20;99.90
5588;DHT22;2816;49.778;9.986;2023-02-15T02:03:30;1.10;99.90
5588;DHT22;2816;49.778;9.986;2023-02-15T02:06:03;1.10;99.90
5588;DHT22;2816;49.778;9.986;2023-02-15T02:08:30;1.10;99.90
5588;DHT22;2816;49.778;9.986;2023-02-15T02:10:58;1.10;99.90
5588;DHT22;2816;49.778;9.986;2023-02-15T02:13:25;1.00;99.90
5588;DHT22;2816;49.778;9.986;2023-02-15T02:15:56;1.10;99.90
5588;DHT22;2816;49.778;9.986;2023-02-15T02:18:35;1.00;99.90
5588;DHT22;2816;49.778;9.986;2023-02-15T02:24:20;1.00;99.90
5588;DHT22;2816;49.778;9.986;2023-02-15T02:27:12;1.00;99.90
5588;DHT22;2816;49.778;9.986;2023-02-15T02:30:18;0.90;99.90
5588;DHT22;2816;49.778;9.986;2023-02-15T02:35:56;1.00;99.90
5588;DHT22;2816;49.778;9.986;2023-02-15T02:38:28;1.20;99.90
5588;DHT22;2816;49.778;9.986;2023-02-15T02:41:07;1.10;99.90
5588;DHT22;2816;49.778;9.986;2023-02-15T02:43:47;1.10;99.90
5588;DHT22;2816;49.778;9.986;2023-02-15T02:46:20;1.10;99.90
5588;DHT22;2816;49.778;9.986;2023-02-15T02:48:50;1.00;99.90
5588;DHT22;2816;49.778;9.986;2023-02-15T02:51:17;1.00;99.90
5588;DHT22;2816;49.778;9.986;2023-02-15T02:53:50;1.00;99.90
5588;DHT22;2816;49.778;9.986;2023-02-15T02:56:22;0.90;99.90
5588;DHT22;2816;49.778;9.986;2023-02-15T02:58:53;0.90;99.90
5588;DHT22;2816;49.778;9.986;2023-02-15T03:01:24;0.90;99.90
5588;DHT22;2816;49.778;9.986;2023-02-15T03:03:57;0.90;99.90
5588;DHT22;2816;49.778;9.986;2023-02-15T03:06:28;1.00;99.90
5588;DHT22;2816;49.778;9.986;2023-02-15T03:09:00;1.00;99.90
5588;DHT22;2816;49.778;9.986;2023-02-15T03:11:28;0.90;99.90
5588;DHT22;2816;49.778;9.986;2023-02-15T03:13:55;0.90;99.90
5588;DHT22;2816;49.778;9.986;2023-02-15T03:16:23;0.80;99.90
5588;DHT22;2816;49.778;9.986;2023-02-15T03:18:57;0.80;99.90
5588;DHT22;2816;49.778;9.986;2023-02-15T03:21:32;0.90;99.90
5588;DHT22;2816;49.778;9.986;2023-02-15T03:24:05;0.80;99.90
5588;DHT22;2816;49.778;9.986;2023-02-15T03:26:34;0.70;99.90
5588;DHT22;2816;49.778;9.986;2023-02-15T03:29:04;0.70;99.90
5588;DHT22;2816;49.778;9.986;2023-02-15T03:31:35;0.70;99.90
5588;DHT22;2816;49.778;9.986;2023-02-15T03:34:07;0.60;99.90
5588;DHT22;2816;49.778;9.986;2023-02-15T03:36:43;0.70;99.90
5588;DHT22;2816;49.778;9.986;2023-02-15T03:39:17;0.70;99.90
5588;DHT22;2816;49.778;9.986;2023-02-15T03:41:52;0.60;99.90
5588;DHT22;2816;49.778;9.986;2023-02-15T03:44:26;0.80;99.90
5588;DHT22;2816;49.778;9.986;2023-02-15T03:46:59;0.70;99.90
5588;DHT22;2816;49.778;9.986;2023-02-15T03:49:32;0.70;99.90
5588;DHT22;2816;49.778;9.986;2023-02-15T03:52:03;0.70;99.90
5588;DHT22;2816;49.778;9.986;2023-02-15T03:54:32;0.70;99.90
5588;DHT22;2816;49.778;9.986;2023-02-15T03:57:12;0.80;99.90
5588;DHT22;2816;49.778;9.986;2023-02-15T03:59:58;0.80;99.90
5588;DHT22;2816;49.778;9.986;2023-02-15T04:02:56;0.70;99.90
5588;DHT22;2816;49.778;9.986;2023-02-15T04:05:26;0.60;99.90
5588;DHT22;2816;49.778;9.986;2023-02-15T04:07:53;0.60;99.90
5588;DHT22;2816;49.778;9.986;2023-02-15T04:10:19;0.60;99.90
5588;DHT22;2816;49.778;9.986;2023-02-15T04:13:04;0.60;99.90
5588;DHT22;2816;49.778;9.986;2023-02-15T04:15:31;0.50;99.90
5588;DHT22;2816;49.778;9.986;2023-02-15T04:18:16;0.50;99.90
5588;DHT22;2816;49.778;9.986;2023-02-15T04:20:45;0.50;99.90
5588;DHT22;2816;49.778;9.986;2023-02-15T04:23:30;0.40;99.90
5588;DHT22;2816;49.778;9.986;2023-02-15T04:26:15;0.40;99.90
5588;DHT22;2816;49.778;9.986;2023-02-15T04:28:41;0.40;99.90
5588;DHT22;2816;49.778;9.986;2023-02-15T04:31:08;0.40;99.90
5588;DHT22;2816;49.778;9.986;2023-02-15T04:33:35;0.20;99.90
5588;DHT22;2816;49.778;9.986;2023-02-15T04:36:04;0.20;99.90
5588;DHT22;2816;49.778;9.986;2023-02-15T04:38:33;0.20;99.90
5588;DHT22;2816;49.778;9.986;2023-02-15T04:40:59;0.40;99.90
5588;DHT22;2816;49.778;9.986;2023-02-15T04:43:26;0.40;99.90
5588;DHT22;2816;49.778;9.986;2023-02-15T04:45:53;0.30;99.90
5588;DHT22;2816;49.778;9.986;2023-02-15T04:48:20;0.30;99.90
5588;DHT22;2816;49.778;9.986;2023-02-15T04:50:47;0.30;99.90
5588;DHT22;2816;49.778;9.986;2023-02-15T04:53:15;0.30;99.90
5588;DHT22;2816;49.778;9.986;2023-02-15T04:55:43;0.40;99.90
5588;DHT22;2816;49.778;9.986;2023-02-15T04:58:10;0.40;99.90
5588;DHT22;2816;49.778;9.986;2023-02-15T05:00:37;0.30;99.90
5588;DHT22;2816;49.778;9.986;2023-02-15T05:03:04;0.30;99.90
5588;DHT22;2816;49.778;9.986;2023-02-15T05:05:31;0.30;99.90
5588;DHT22;2816;49.778;9.986;2023-02-15T05:07:58;0.30;99.90
5588;DHT22;2816;49.778;9.986;2023-02-15T05:10:26;0.30;99.90
5588;DHT22;2816;49.778;9.986;2023-02-15T05:12:54;0.30;99.90
5588;DHT22;2816;49.778;9.986;2023-02-15T05:15:20;0.30;99.90
5588;DHT22;2816;49.778;9.986;2023-02-15T05:17:47;0.30;99.90
5588;DHT22;2816;49.778;9.986;2023-02-15T05:20:14;0.30;99.90
5588;DHT22;2816;49.778;9.986;2023-02-15T05:22:41;0.30;99.90
5588;DHT22;2816;49.778;9.986;2023-02-15T05:25:09;0.30;99.90
5588;DHT22;2816;49.778;9.986;2023-02-15T05:27:54;0.30;99.90
5588;DHT22;2816;49.778;9.986;2023-02-15T05:30:35;0.20;99.90
5588;DHT22;2816;49.778;9.986;2023-02-15T05:33:02;0.20;99.90
5588;DHT22;2816;49.778;9.986;2023-02-15T05:35:29;0.20;99.90
5588;DHT22;2816;49.778;9.986;2023-02-15T05:37:56;0.20;99.90
5588;DHT22;2816;49.778;9.986;2023-02-15T05:40:23;0.20;99.90
5588;DHT22;2816;49.778;9.986;2023-02-15T05:42:50;0.20;99.90
5588;DHT22;2816;49.778;9.986;2023-02-15T05:45:18;0.20;99.90
5588;DHT22;2816;49.778;9.986;2023-02-15T05:47:45;0.20;99.90
5588;DHT22;2816;49.778;9.986;2023-02-15T05:50:12;0.00;99.90
5588;DHT22;2816;49.778;9.986;2023-02-15T05:52:40;0.00;99.90
5588;DHT22;2816;49.778;9.986;2023-02-15T05:55:07;-0.10;99.90
5588;DHT22;2816;49.778;9.986;2023-02-15T05:57:35;0.00;99.90
5588;DHT22;2816;49.778;9.986;2023-02-15T06:00:03;0.00;99.90
5588;DHT22;2816;49.778;9.986;2023-02-15T06:02:33;0.20;99.90
5588;DHT22;2816;49.778;9.986;2023-02-15T06:05:00;0.10;99.90
5588;DHT22;2816;49.778;9.986;2023-02-15T06:07:27;0.00;99.90
5588;DHT22;2816;49.778;9.986;2023-02-15T06:09:54;0.20;99.90
5588;DHT22;2816;49.778;9.986;2023-02-15T06:12:21;0.20;99.90
5588;DHT22;2816;49.778;9.986;2023-02-15T06:14:48;0.20;99.90
5588;DHT22;2816;49.778;9.986;2023-02-15T06:17:15;0.20;99.90
5588;DHT22;2816;49.778;9.986;2023-02-15T06:19:44;0.10;99.90
5588;DHT22;2816;49.778;9.986;2023-02-15T06:22:11;0.30;99.90
5588;DHT22;2816;49.778;9.986;2023-02-15T06:24:39;0.30;99.90
5588;DHT22;2816;49.778;9.986;2023-02-15T06:27:08;0.30;99.90
5588;DHT22;2816;49.778;9.986;2023-02-15T06:29:35;0.20;99.90
5588;DHT22;2816;49.778;9.986;2023-02-15T06:32:02;0.20;99.90
5588;DHT22;2816;49.778;9.986;2023-02-15T06:34:28;0.10;99.90
5588;DHT22;2816;49.778;9.986;2023-02-15T06:36:57;0.20;99.90
5588;DHT22;2816;49.778;9.986;2023-02-15T06:39:24;0.20;99.90
5588;DHT22;2816;49.778;9.986;2023-02-15T06:41:51;0.10;99.90
5588;DHT22;2816;49.778;9.986;2023-02-15T06:44:18;0.10;99.90
5588;DHT22;2816;49.778;9.986;2023-02-15T06:46:45;0.20;99.90
5588;DHT22;2816;49.778;9.986;2023-02-15T06:49:12;0.00;99.90
5588;DHT22;2816;49.778;9.986;2023-02-15T06:51:38;0.00;99.90
5588;DHT22;2816;49.778;9.986;2023-02-15T06:54:07;-0.10;99.90
5588;DHT22;2816;49.778;9.986;2023-02-15T06:56:34;0.00;99.90
5588;DHT22;2816;49.778;9.986;2023-02-15T06:59:01;-0.10;99.90
5588;DHT22;2816;49.778;9.986;2023-02-15T07:01:28;-0.10;99.90
5588;DHT22;2816;49.778;9.986;2023-02-15T07:03:55;0.00;99.90
5588;DHT22;2816;49.778;9.986;2023-02-15T07:06:22;0.10;99.90
5588;DHT22;2816;49.778;9.986;2023-02-15T07:08:49;0.00;99.90
5588;DHT22;2816;49.778;9.986;2023-02-15T07:11:17;-0.10;99.90
5588;DHT22;2816;49.778;9.986;2023-02-15T07:14:02;-0.10;99.90
5588;DHT22;2816;49.778;9.986;2023-02-15T07:16:28;-0.20;99.90
5588;DHT22;2816;49.778;9.986;2023-02-15T07:18:55;-0.10;99.90
5588;DHT22;2816;49.778;9.986;2023-02-15T07:21:22;-0.10;99.90
5588;DHT22;2816;49.778;9.986;2023-02-15T07:23:49;-0.10;99.90
5588;DHT22;2816;49.778;9.986;2023-02-15T07:26:17;-0.20;99.90
5588;DHT22;2816;49.778;9.986;2023-02-15T07:28:44;-0.20;99.90
5588;DHT22;2816;49.778;9.986;2023-02-15T07:31:11;-0.30;99.90
5588;DHT22;2816;49.778;9.986;2023-02-15T07:33:38;-0.30;99.90
5588;DHT22;2816;49.778;9.986;2023-02-15T07:36:06;-0.40;99.90
5588;DHT22;2816;49.778;9.986;2023-02-15T07:38:36;-0.30;99.90
5588;DHT22;2816;49.778;9.986;2023-02-15T07:41:05;-0.40;99.90
5588;DHT22;2816;49.778;9.986;2023-02-15T07:43:35;-0.40;99.90
5588;DHT22;2816;49.778;9.986;2023-02-15T07:46:04;-0.30;99.90
5588;DHT22;2816;49.778;9.986;2023-02-15T07:48:33;-0.30;99.90
5588;DHT22;2816;49.778;9.986;2023-02-15T07:51:00;-0.30;99.90
5588;DHT22;2816;49.778;9.986;2023-02-15T07:53:28;-0.30;99.90
5588;DHT22;2816;49.778;9.986;2023-02-15T07:55:57;-0.40;99.90
5588;DHT22;2816;49.778;9.986;2023-02-15T07:58:24;-0.40;99.90
5588;DHT22;2816;49.778;9.986;2023-02-15T08:01:13;-0.40;99.90
5588;DHT22;2816;49.778;9.986;2023-02-15T08:03:40;-0.40;99.90
5588;DHT22;2816;49.778;9.986;2023-02-15T08:06:07;-0.30;99.90
5588;DHT22;2816;49.778;9.986;2023-02-15T08:08:35;-0.20;99.90
5588;DHT22;2816;49.778;9.986;2023-02-15T08:11:05;-0.30;99.90
5588;DHT22;2816;49.778;9.986;2023-02-15T08:13:51;-0.20;99.90
5588;DHT22;2816;49.778;9.986;2023-02-15T08:16:24;-0.20;99.90
5588;DHT22;2816;49.778;9.986;2023-02-15T08:18:51;-0.30;99.90
5588;DHT22;2816;49.778;9.986;2023-02-15T08:21:19;-0.10;99.90
5588;DHT22;2816;49.778;9.986;2023-02-15T08:23:46;-0.20;99.90
5588;DHT22;2816;49.778;9.986;2023-02-15T08:26:14;-0.10;99.90
5588;DHT22;2816;49.778;9.986;2023-02-15T08:28:42;-0.30;99.90
5588;DHT22;2816;49.778;9.986;2023-02-15T08:31:11;-0.30;99.90
5588;DHT22;2816;49.778;9.986;2023-02-15T08:33:41;-0.30;99.90
5588;DHT22;2816;49.778;9.986;2023-02-15T08:36:11;-0.50;99.90
5588;DHT22;2816;49.778;9.986;2023-02-15T08:38:38;-0.60;99.90
5588;DHT22;2816;49.778;9.986;2023-02-15T08:41:13;-0.50;99.90
5588;DHT22;2816;49.778;9.986;2023-02-15T08:43:41;-0.30;99.90
5588;DHT22;2816;49.778;9.986;2023-02-15T08:46:08;-0.30;99.90
5588;DHT22;2816;49.778;9.986;2023-02-15T08:48:36;-0.20;99.90
5588;DHT22;2816;49.778;9.986;2023-02-15T08:51:09;-0.20;99.90
5588;DHT22;2816;49.778;9.986;2023-02-15T08:53:37;-0.30;99.90
5588;DHT22;2816;49.778;9.986;2023-02-15T08:56:05;-0.30;99.90
5588;DHT22;2816;49.778;9.986;2023-02-15T08:58:33;-0.10;99.90
5588;DHT22;2816;49.778;9.986;2023-02-15T09:01:02;-0.10;99.90
5588;DHT22;2816;49.778;9.986;2023-02-15T09:03:34;-0.10;99.90
5588;DHT22;2816;49.778;9.986;2023-02-15T09:06:01;-0.10;99.90
5588;DHT22;2816;49.778;9.986;2023-02-15T09:08:29;0.00;99.90
5588;DHT22;2816;49.778;9.986;2023-02-15T09:11:05;0.10;99.90
5588;DHT22;2816;49.778;9.986;2023-02-15T09:13:33;0.10;99.90
5588;DHT22;2816;49.778;9.986;2023-02-15T09:16:01;-0.20;99.90
5588;DHT22;2816;49.778;9.986;2023-02-15T09:18:30;-0.40;99.90
5588;DHT22;2816;49.778;9.986;2023-02-15T09:20:57;-0.40;99.90
5588;DHT22;2816;49.778;9.986;2023-02-15T09:23:31;-0.40;99.90
5588;DHT22;2816;49.778;9.986;2023-02-15T09:26:02;-0.20;99.90
5588;DHT22;2816;49.778;9.986;2023-02-15T09:28:29;-0.10;99.90
5588;DHT22;2816;49.778;9.986;2023-02-15T09:30:56;0.20;99.90
5588;DHT22;2816;49.778;9.986;2023-02-15T09:33:23;0.00;99.90
5588;DHT22;2816;49.778;9.986;2023-02-15T09:35:51;0.10;99.90
5588;DHT22;2816;49.778;9.986;2023-02-15T09:38:18;0.10;99.90
5588;DHT22;2816;49.778;9.986;2023-02-15T09:40:53;0.00;99.90
5588;DHT22;2816;49.778;9.986;2023-02-15T09:43:30;0.10;99.90
5588;DHT22;2816;49.778;9.986;2023-02-15T09:49:09;0.60;99.90
5588;DHT22;2816;49.778;9.986;2023-02-15T09:52:10;0.40;99.90
5588;DHT22;2816;49.778;9.986;2023-02-15T09:55:01;0.30;99.90
5588;DHT22;2816;49.778;9.986;2023-02-15T09:57:37;0.10;99.90
5588;DHT22;2816;49.778;9.986;2023-02-15T10:00:19;0.10;99.90
5588;DHT22;2816;49.778;9.986;2023-02-15T10:03:00;0.10;99.90
5588;DHT22;2816;49.778;9.986;2023-02-15T10:05:38;0.00;99.90
5588;DHT22;2816;49.778;9.986;2023-02-15T10:08:28;0.10;99.90
5588;DHT22;2816;49.778;9.986;2023-02-15T10:11:05;0.10;99.90
5588;DHT22;2816;49.778;9.986;2023-02-15T10:14:01;0.00;99.90
5588;DHT22;2816;49.778;9.986;2023-02-15T10:16:36;0.10;99.90
5588;DHT22;2816;49.778;9.986;2023-02-15T10:19:11;0.20;99.90
5588;DHT22;2816;49.778;9.986;2023-02-15T10:21:53;0.10;99.90
5588;DHT22;2816;49.778;9.986;2023-02-15T10:24:48;0.20;99.90
5588;DHT22;2816;49.778;9.986;2023-02-15T10:27:20;0.30;99.90
5588;DHT22;2816;49.778;9.986;2023-02-15T10:29:58;0.40;99.90
5588;DHT22;2816;49.778;9.986;2023-02-15T10:32:32;0.40;99.90
5588;DHT22;2816;49.778;9.986;2023-02-15T10:35:05;0.50;99.90
5588;DHT22;2816;49.778;9.986;2023-02-15T10:38:06;0.50;99.90
5588;DHT22;2816;49.778;9.986;2023-02-15T10:40:42;0.70;99.90
5588;DHT22;2816;49.778;9.986;2023-02-15T10:43:21;0.40;99.90
5588;DHT22;2816;49.778;9.986;2023-02-15T10:45:58;0.50;99.90
5588;DHT22;2816;49.778;9.986;2023-02-15T10:48:47;0.70;99.90
5588;DHT22;2816;49.778;9.986;2023-02-15T10:51:25;0.60;99.90
5588;DHT22;2816;49.778;9.986;2023-02-15T10:54:09;0.60;99.90
5588;DHT22;2816;49.778;9.986;2023-02-15T10:56:43;0.40;99.90
5588;DHT22;2816;49.778;9.986;2023-02-15T10:59:30;0.50;99.90
5588;DHT22;2816;49.778;9.986;2023-02-15T11:02:11;0.50;99.90
5588;DHT22;2816;49.778;9.986;2023-02-15T11:04:51;0.50;99.90
5588;DHT22;2816;49.778;9.986;2023-02-15T11:07:23;0.60;99.90
5588;DHT22;2816;49.778;9.986;2023-02-15T11:09:54;0.60;99.90
5588;DHT22;2816;49.778;9.986;2023-02-15T11:12:24;0.70;99.90
5588;DHT22;2816;49.778;9.986;2023-02-15T11:14:57;0.60;99.90
5588;DHT22;2816;49.778;9.986;2023-02-15T11:17:30;0.70;99.90
5588;DHT22;2816;49.778;9.986;2023-02-15T11:20:08;0.60;99.90
5588;DHT22;2816;49.778;9.986;2023-02-15T11:22:39;0.60;99.90
5588;DHT22;2816;49.778;9.986;2023-02-15T11:25:17;0.70;99.90
5588;DHT22;2816;49.778;9.986;2023-02-15T11:27:47;0.70;99.90
5588;DHT22;2816;49.778;9.986;2023-02-15T11:30:17;0.70;99.90
5588;DHT22;2816;49.778;9.986;2023-02-15T11:32:49;0.70;99.90
5588;DHT22;2816;49.778;9.986;2023-02-15T11:35:21;0.70;99.90
5588;DHT22;2816;49.778;9.986;2023-02-15T11:37:53;0.60;99.90
5588;DHT22;2816;49.778;9.986;2023-02-15T11:40:25;0.60;99.90
5588;DHT22;2816;49.778;9.986;2023-02-15T11:42:55;0.80;99.90
5588;DHT22;2816;49.778;9.986;2023-02-15T11:45:27;0.90;99.90
5588;DHT22;2816;49.778;9.986;2023-02-15T11:47:56;0.70;99.90
5588;DHT22;2816;49.778;9.986;2023-02-15T11:50:25;0.60;99.90
5588;DHT22;2816;49.778;9.986;2023-02-15T11:52:56;0.70;99.90
5588;DHT22;2816;49.778;9.986;2023-02-15T11:55:25;0.70;99.90
5588;DHT22;2816;49.778;9.986;2023-02-15T11:57:56;0.80;99.90
5588;DHT22;2816;49.778;9.986;2023-02-15T12:00:31;0.90;99.90
5588;DHT22;2816;49.778;9.986;2023-02-15T12:03:07;1.00;99.90
5588;DHT22;2816;49.778;9.986;2023-02-15T12:05:40;1.00;99.90
5588;DHT22;2816;49.778;9.986;2023-02-15T12:08:15;0.90;99.90
5588;DHT22;2816;49.778;9.986;2023-02-15T12:10:56;1.00;99.90
5588;DHT22;2816;49.778;9.986;2023-02-15T12:13:24;1.20;99.90
5588;DHT22;2816;49.778;9.986;2023-02-15T12:15:52;1.10;99.90
5588;DHT22;2816;49.778;9.986;2023-02-15T12:18:37;1.20;99.90
5588;DHT22;2816;49.778;9.986;2023-02-15T12:21:08;1.40;99.90
5588;DHT22;2816;49.778;9.986;2023-02-15T12:23:43;1.40;99.90
5588;DHT22;2816;49.778;9.986;2023-02-15T12:26:13;1.40;99.90
5588;DHT22;2816;49.778;9.986;2023-02-15T12:28:42;1.20;99.90
5588;DHT22;2816;49.778;9.986;2023-02-15T12:31:20;1.10;99.90
5588;DHT22;2816;49.778;9.986;2023-02-15T12:33:52;1.00;99.90
5588;DHT22;2816;49.778;9.986;2023-02-15T12:36:21;1.00;99.90
5588;DHT22;2816;49.778;9.986;2023-02-15T12:39:15;1.00;99.90
5588;DHT22;2816;49.778;9.986;2023-02-15T12:41:45;1.10;99.90
5588;DHT22;2816;49.778;9.986;2023-02-15T12:44:16;1.20;99.90
5588;DHT22;2816;49.778;9.986;2023-02-15T12:46:56;1.10;99.90
5588;DHT22;2816;49.778;9.986;2023-02-15T12:49:25;1.00;99.90
5588;DHT22;2816;49.778;9.986;2023-02-15T12:51:54;1.10;99.90
5588;DHT22;2816;49.778;9.986;2023-02-15T12:54:36;1.20;99.90
5588;DHT22;2816;49.778;9.986;2023-02-15T12:57:23;1.30;99.90
5588;DHT22;2816;49.778;9.986;2023-02-15T12:59:53;1.30;99.90
5588;DHT22;2816;49.778;9.986;2023-02-15T13:02:26;1.20;99.90
5588;DHT22;2816;49.778;9.986;2023-02-15T13:04:56;1.20;99.90
5588;DHT22;2816;49.778;9.986;2023-02-15T13:07:29;1.10;99.90
5588;DHT22;2816;49.778;9.986;2023-02-15T13:09:57;1.30;99.90
5588;DHT22;2816;49.778;9.986;2023-02-15T13:12:25;1.40;99.90
5588;DHT22;2816;49.778;9.986;2023-02-15T13:14:55;1.40;99.90
5588;DHT22;2816;49.778;9.986;2023-02-15T13:17:26;1.40;99.90
5588;DHT22;2816;49.778;9.986;2023-02-15T13:19:59;1.50;99.90
5588;DHT22;2816;49.778;9.986;2023-02-15T13:22:33;1.50;99.90
5588;DHT22;2816;49.778;9.986;2023-02-15T13:25:04;1.40;99.90
5588;DHT22;2816;49.778;9.986;2023-02-15T13:27:36;1.40;99.90
5588;DHT22;2816;49.778;9.986;2023-02-15T13:30:14;1.50;99.90
5588;DHT22;2816;49.778;9.986;2023-02-15T13:32:45;1.50;99.90
5588;DHT22;2816;49.778;9.986;2023-02-15T13:35:18;1.60;99.90
5588;DHT22;2816;49.778;9.986;2023-02-15T13:40:45;1.60;99.90
5588;DHT22;2816;49.778;9.986;2023-02-15T13:43:23;1.70;99.90
5588;DHT22;2816;49.778;9.986;2023-02-15T13:45:59;1.80;99.90
5588;DHT22;2816;49.778;9.986;2023-02-15T13:48:35;1.60;99.90
5588;DHT22;2816;49.778;9.986;2023-02-15T13:51:13;1.60;99.90
5588;DHT22;2816;49.778;9.986;2023-02-15T13:53:57;1.70;99.90
5588;DHT22;2816;49.778;9.986;2023-02-15T13:56:34;1.80;99.90
5588;DHT22;2816;49.778;9.986;2023-02-15T13:59:46;1.90;99.90
5588;DHT22;2816;49.778;9.986;2023-02-15T14:02:36;2.00;99.90
5588;DHT22;2816;49.778;9.986;2023-02-15T14:05:30;1.80;99.90
5588;DHT22;2816;49.778;9.986;2023-02-15T14:08:08;1.90;99.90
5588;DHT22;2816;49.778;9.986;2023-02-15T14:10:44;1.90;99.90
5588;DHT22;2816;49.778;9.986;2023-02-15T14:13:36;1.90;99.90
5588;DHT22;2816;49.778;9.986;2023-02-15T14:16:13;1.90;99.90
5588;DHT22;2816;49.778;9.986;2023-02-15T14:18:44;1.90;99.90
5588;DHT22;2816;49.778;9.986;2023-02-15T14:21:16;1.90;99.90
5588;DHT22;2816;49.778;9.986;2023-02-15T14:23:56;2.00;99.90
5588;DHT22;2816;49.778;9.986;2023-02-15T14:26:33;2.00;99.90
5588;DHT22;2816;49.778;9.986;2023-02-15T14:29:13;2.10;99.90
5588;DHT22;2816;49.778;9.986;2023-02-15T14:31:45;2.00;99.90
5588;DHT22;2816;49.778;9.986;2023-02-15T14:34:20;2.10;99.90
5588;DHT22;2816;49.778;9.986;2023-02-15T14:36:50;2.20;99.90
5588;DHT22;2816;49.778;9.986;2023-02-15T14:39:29;2.20;99.90
5588;DHT22;2816;49.778;9.986;2023-02-15T14:42:20;2.20;99.90
5588;DHT22;2816;49.778;9.986;2023-02-15T14:44:57;2.30;99.90
5588;DHT22;2816;49.778;9.986;2023-02-15T14:47:31;2.40;99.90
5588;DHT22;2816;49.778;9.986;2023-02-15T14:50:39;2.40;99.90
5588;DHT22;2816;49.778;9.986;2023-02-15T14:56:17;2.40;99.90
5588;DHT22;2816;49.778;9.986;2023-02-15T14:59:13;2.50;99.90
5588;DHT22;2816;49.778;9.986;2023-02-15T15:01:41;2.60;99.90
5588;DHT22;2816;49.778;9.986;2023-02-15T15:04:12;2.70;99.90
5588;DHT22;2816;49.778;9.986;2023-02-15T15:06:42;2.80;99.90
5588;DHT22;2816;49.778;9.986;2023-02-15T15:09:12;2.80;99.90
5588;DHT22;2816;49.778;9.986;2023-02-15T15:11:45;2.70;99.90
5588;DHT22;2816;49.778;9.986;2023-02-15T15:14:37;2.80;99.90
5588;DHT22;2816;49.778;9.986;2023-02-15T15:17:05;2.80;99.90
5588;DHT22;2816;49.778;9.986;2023-02-15T15:19:57;2.70;99.90
5588;DHT22;2816;49.778;9.986;2023-02-15T15:22:26;2.70;99.90
5588;DHT22;2816;49.778;9.986;2023-02-15T15:24:54;2.80;99.90
5588;DHT22;2816;49.778;9.986;2023-02-15T15:27:44;2.90;99.90
5588;DHT22;2816;49.778;9.986;2023-02-15T15:33:53;2.90;99.90
5588;DHT22;2816;49.778;9.986;2023-02-15T15:40:04;3.00;99.90
5588;DHT22;2816;49.778;9.986;2023-02-15T15:42:50;2.90;99.90
5588;DHT22;2816;49.778;9.986;2023-02-15T15:45:41;2.90;99.90
5588;DHT22;2816;49.778;9.986;2023-02-15T15:51:11;2.80;99.90
5588;DHT22;2816;49.778;9.986;2023-02-15T15:53:41;2.80;99.90
5588;DHT22;2816;49.778;9.986;2023-02-15T15:56:15;2.80;99.90
5588;DHT22;2816;49.778;9.986;2023-02-15T15:58:50;2.80;99.90
5588;DHT22;2816;49.778;9.986;2023-02-15T16:01:24;2.70;99.90
5588;DHT22;2816;49.778;9.986;2023-02-15T16:03:54;2.70;99.90
5588;DHT22;2816;49.778;9.986;2023-02-15T16:06:30;2.70;99.90
5588;DHT22;2816;49.778;9.986;2023-02-15T16:08:57;2.60;99.90
5588;DHT22;2816;49.778;9.986;2023-02-15T16:11:25;2.50;99.90
5588;DHT22;2816;49.778;9.986;2023-02-15T16:13:55;2.30;99.90
5588;DHT22;2816;49.778;9.986;2023-02-15T16:16:24;2.30;99.90
5588;DHT22;2816;49.778;9.986;2023-02-15T16:18:54;2.20;99.90
5588;DHT22;2816;49.778;9.986;2023-02-15T16:21:28;2.20;99.90
5588;DHT22;2816;49.778;9.986;2023-02-15T16:24:21;2.10;99.90
5588;DHT22;2816;49.778;9.986;2023-02-15T16:27:05;2.00;99.90
5588;DHT22;2816;49.778;9.986;2023-02-15T16:29:36;2.00;99.90
5588;DHT22;2816;49.778;9.986;2023-02-15T16:32:06;2.00;99.90
5588;DHT22;2816;49.778;9.986;2023-02-15T16:34:50;2.00;99.90
5588;DHT22;2816;49.778;9.986;2023-02-15T16:37:19;2.00;99.90
5588;DHT22;2816;49.778;9.986;2023-02-15T16:39:47;1.80;99.90
5588;DHT22;2816;49.778;9.986;2023-02-15T16:42:15;1.90;99.90
5588;DHT22;2816;49.778;9.986;2023-02-15T16:44:44;1.80;99.90
5588;DHT22;2816;49.778;9.986;2023-02-15T16:47:16;1.80;99.90
5588;DHT22;2816;49.778;9.986;2023-02-15T16:49:46;1.70;99.90
5588;DHT22;2816;49.778;9.986;2023-02-15T16:52:18;1.60;99.90
5588;DHT22;2816;49.778;9.986;2023-02-15T16:54:54;1.60;99.90
5588;DHT22;2816;49.778;9.986;2023-02-15T16:57:24;1.50;99.90
5588;DHT22;2816;49.778;9.986;2023-02-15T16:59:55;1.50;99.90
5588;DHT22;2816;49.778;9.986;2023-02-15T17:02:26;1.50;99.90
5588;DHT22;2816;49.778;9.986;2023-02-15T17:05:13;1.40;99.90
5588;DHT22;2816;49.778;9.986;2023-02-15T17:07:42;1.40;99.90
5588;DHT22;2816;49.778;9.986;2023-02-15T17:10:29;1.30;99.90
5588;DHT22;2816;49.778;9.986;2023-02-15T17:13:01;1.20;99.90
5588;DHT22;2816;49.778;9.986;2023-02-15T17:15:32;1.20;99.90